sensor_id;sensor_type;location;lat;lon;timestamp;temperature;humidity
80412;SHT30;69749;42.684;23.360;2023-11-19T00:00:25;6.45;57.02
80412;SHT30;69749;42.684;23.360;2023-11-19T00:02:50;6.48;56.67
80412;SHT30;69749;42.684;23.360;2023-11-19T00:05:16;6.46;56.97
80412;SHT30;69749;42.684;23.360;2023-11-19T00:07:41;6.46;57.05
80412;SHT30;69749;42.684;23.360;2023-11-19T00:10:12;6.51;56.76
80412;SHT30;69749;42.684;23.360;2023-11-19T00:12:42;6.55;56.86
80412;SHT30;69749;42.684;23.360;2023-11-19T00:15:08;6.46;56.36
80412;SHT30;69749;42.684;23.360;2023-11-19T00:17:43;6.41;56.64
80412;SHT30;69749;42.684;23.360;2023-11-19T00:20:17;6.38;56.48
80412;SHT30;69749;42.684;23.360;2023-11-19T00:22:43;6.42;56.66
80412;SHT30;69749;42.684;23.360;2023-11-19T00:25:09;6.45;56.71
80412;SHT30;69749;42.684;23.360;2023-11-19T00:27:35;6.45;56.69
80412;SHT30;69749;42.684;23.360;2023-11-19T00:30:03;6.41;56.68
80412;SHT30;69749;42.684;23.360;2023-11-19T00:32:30;6.52;56.36
80412;SHT30;69749;42.684;23.360;2023-11-19T00:34:56;6.46;56.16
80412;SHT30;69749;42.684;23.360;2023-11-19T00:37:21;6.46;56.14
80412;SHT30;69749;42.684;23.360;2023-11-19T00:39:46;6.37;56.43
80412;SHT30;69749;42.684;23.360;2023-11-19T00:42:12;6.34;56.72
80412;SHT30;69749;42.684;23.360;2023-11-19T00:44:37;6.24;56.78
80412;SHT30;69749;42.684;23.360;2023-11-19T00:47:03;6.24;57.15
80412;SHT30;69749;42.684;23.360;2023-11-19T00:49:29;6.21;57.50
80412;SHT30;69749;42.684;23.360;2023-11-19T00:51:54;6.35;57.18
80412;SHT30;69749;42.684;23.360;2023-11-19T00:54:19;6.41;57.15
80412;SHT30;69749;42.684;23.360;2023-11-19T00:56:45;6.48;56.93
80412;SHT30;69749;42.684;23.360;2023-11-19T00:59:10;6.45;56.69
80412;SHT30;69749;42.684;23.360;2023-11-19T01:01:36;6.34;56.83
80412;SHT30;69749;42.684;23.360;2023-11-19T01:04:02;6.31;57.24
80412;SHT30;69749;42.684;23.360;2023-11-19T01:06:31;6.31;57.62
80412;SHT30;69749;42.684;23.360;2023-11-19T01:08:57;6.31;57.56
80412;SHT30;69749;42.684;23.360;2023-11-19T01:11:23;6.27;57.59
80412;SHT30;69749;42.684;23.360;2023-11-19T01:13:49;6.22;57.40
80412;SHT30;69749;42.684;23.360;2023-11-19T01:16:15;6.27;57.50
80412;SHT30;69749;42.684;23.360;2023-11-19T01:18:41;6.18;57.32
80412;SHT30;69749;42.684;23.360;2023-11-19T01:21:06;6.16;57.85
80412;SHT30;69749;42.684;23.360;2023-11-19T01:23:32;6.24;58.01
80412;SHT30;69749;42.684;23.360;2023-11-19T01:25:58;6.24;57.31
80412;SHT30;69749;42.684;23.360;2023-11-19T01:28:23;6.30;57.63
80412;SHT30;69749;42.684;23.360;2023-11-19T01:30:52;6.34;57.49
80412;SHT30;69749;42.684;23.360;2023-11-19T01:33:17;6.24;57.08
80412;SHT30;69749;42.684;23.360;2023-11-19T01:35:43;6.27;57.78
80412;SHT30;69749;42.684;23.360;2023-11-19T01:38:11;6.34;57.29
80412;SHT30;69749;42.684;23.360;2023-11-19T01:40:37;6.42;56.82
80412;SHT30;69749;42.684;23.360;2023-11-19T01:43:03;6.41;57.04
80412;SHT30;69749;42.684;23.360;2023-11-19T01:45:30;6.44;56.32
80412;SHT30;69749;42.684;23.360;2023-11-19T01:47:57;6.37;56.35
80412;SHT30;69749;42.684;23.360;2023-11-19T01:50:24;6.35;56.30
80412;SHT30;69749;42.684;23.360;2023-11-19T01:52:52;6.32;56.06
80412;SHT30;69749;42.684;23.360;2023-11-19T01:55:20;6.24;56.01
80412;SHT30;69749;42.684;23.360;2023-11-19T01:57:47;6.03;56.42
80412;SHT30;69749;42.684;23.360;2023-11-19T02:00:14;5.90;57.41
80412;SHT30;69749;42.684;23.360;2023-11-19T02:02:41;5.87;57.24
80412;SHT30;69749;42.684;23.360;2023-11-19T02:05:09;5.93;56.76
80412;SHT30;69749;42.684;23.360;2023-11-19T02:07:34;5.93;56.57
80412;SHT30;69749;42.684;23.360;2023-11-19T02:10:00;5.97;56.64
80412;SHT30;69749;42.684;23.360;2023-11-19T02:12:28;5.93;56.39
80412;SHT30;69749;42.684;23.360;2023-11-19T02:14:54;5.87;56.93
80412;SHT30;69749;42.684;23.360;2023-11-19T02:19:52;6.03;56.31
80412;SHT30;69749;42.684;23.360;2023-11-19T02:22:18;6.01;55.96
80412;SHT30;69749;42.684;23.360;2023-11-19T02:24:45;5.96;56.01
80412;SHT30;69749;42.684;23.360;2023-11-19T02:27:14;5.91;56.12
80412;SHT30;69749;42.684;23.360;2023-11-19T02:29:41;5.85;56.40
80412;SHT30;69749;42.684;23.360;2023-11-19T02:32:07;5.79;56.71
80412;SHT30;69749;42.684;23.360;2023-11-19T02:34:34;5.86;56.89
80412;SHT30;69749;42.684;23.360;2023-11-19T02:37:00;5.86;56.50
80412;SHT30;69749;42.684;23.360;2023-11-19T02:39:25;5.85;56.45
80412;SHT30;69749;42.684;23.360;2023-11-19T02:41:51;5.85;56.51
80412;SHT30;69749;42.684;23.360;2023-11-19T02:44:18;5.80;56.50
80412;SHT30;69749;42.684;23.360;2023-11-19T02:46:43;5.67;56.84
80412;SHT30;69749;42.684;23.360;2023-11-19T02:49:09;5.59;57.23
80412;SHT30;69749;42.684;23.360;2023-11-19T02:51:34;5.52;57.55
80412;SHT30;69749;42.684;23.360;2023-11-19T02:54:00;5.55;57.69
80412;SHT30;69749;42.684;23.360;2023-11-19T02:56:25;5.45;57.81
80412;SHT30;69749;42.684;23.360;2023-11-19T02:58:52;5.43;57.90
80412;SHT30;69749;42.684;23.360;2023-11-19T03:01:24;5.46;58.05
80412;SHT30;69749;42.684;23.360;2023-11-19T03:04:00;5.51;58.12
80412;SHT30;69749;42.684;23.360;2023-11-19T03:06:27;5.52;57.87
80412;SHT30;69749;42.684;23.360;2023-11-19T03:08:55;5.60;57.60
80412;SHT30;69749;42.684;23.360;2023-11-19T03:11:20;5.60;57.70
80412;SHT30;69749;42.684;23.360;2023-11-19T03:13:46;5.62;57.51
80412;SHT30;69749;42.684;23.360;2023-11-19T03:16:12;5.52;57.85
80412;SHT30;69749;42.684;23.360;2023-11-19T03:18:38;5.49;57.94
80412;SHT30;69749;42.684;23.360;2023-11-19T03:21:06;5.52;58.17
80412;SHT30;69749;42.684;23.360;2023-11-19T03:23:31;5.52;57.75
80412;SHT30;69749;42.684;23.360;2023-11-19T03:25:57;5.43;57.81
80412;SHT30;69749;42.684;23.360;2023-11-19T03:28:40;5.45;57.86
80412;SHT30;69749;42.684;23.360;2023-11-19T03:31:06;5.38;57.96
80412;SHT30;69749;42.684;23.360;2023-11-19T03:33:34;5.35;58.01
80412;SHT30;69749;42.684;23.360;2023-11-19T03:35:59;5.28;58.25
80412;SHT30;69749;42.684;23.360;2023-11-19T03:38:25;5.28;58.32
80412;SHT30;69749;42.684;23.360;2023-11-19T03:40:50;5.38;58.35
80412;SHT30;69749;42.684;23.360;2023-11-19T03:43:16;5.35;58.23
80412;SHT30;69749;42.684;23.360;2023-11-19T03:45:41;5.36;58.32
80412;SHT30;69749;42.684;23.360;2023-11-19T03:48:07;5.38;58.22
80412;SHT30;69749;42.684;23.360;2023-11-19T03:50:32;5.45;57.86
80412;SHT30;69749;42.684;23.360;2023-11-19T03:52:58;5.49;57.89
80412;SHT30;69749;42.684;23.360;2023-11-19T03:55:24;5.51;58.10
80412;SHT30;69749;42.684;23.360;2023-11-19T03:57:49;5.43;57.91
80412;SHT30;69749;42.684;23.360;2023-11-19T04:00:15;5.52;57.75
80412;SHT30;69749;42.684;23.360;2023-11-19T04:02:41;5.48;58.17
80412;SHT30;69749;42.684;23.360;2023-11-19T04:05:07;5.48;57.90
80412;SHT30;69749;42.684;23.360;2023-11-19T04:07:33;5.49;57.71
80412;SHT30;69749;42.684;23.360;2023-11-19T04:09:59;5.48;58.30
80412;SHT30;69749;42.684;23.360;2023-11-19T04:12:25;5.53;58.03
80412;SHT30;69749;42.684;23.360;2023-11-19T04:14:50;5.56;57.66
80412;SHT30;69749;42.684;23.360;2023-11-19T04:17:15;5.58;57.61
80412;SHT30;69749;42.684;23.360;2023-11-19T04:19:41;5.63;57.38
80412;SHT30;69749;42.684;23.360;2023-11-19T04:22:09;5.65;57.24
80412;SHT30;69749;42.684;23.360;2023-11-19T04:24:36;5.53;57.51
80412;SHT30;69749;42.684;23.360;2023-11-19T04:27:02;5.48;57.56
80412;SHT30;69749;42.684;23.360;2023-11-19T04:29:29;5.48;57.75
80412;SHT30;69749;42.684;23.360;2023-11-19T04:31:55;5.49;57.82
80412;SHT30;69749;42.684;23.360;2023-11-19T04:34:21;5.42;57.89
80412;SHT30;69749;42.684;23.360;2023-11-19T04:36:47;5.45;58.13
80412;SHT30;69749;42.684;23.360;2023-11-19T04:39:13;5.51;57.69
80412;SHT30;69749;42.684;23.360;2023-11-19T04:41:50;5.62;57.68
80412;SHT30;69749;42.684;23.360;2023-11-19T04:44:17;5.70;57.74
80412;SHT30;69749;42.684;23.360;2023-11-19T04:46:43;5.76;57.17
80412;SHT30;69749;42.684;23.360;2023-11-19T04:49:09;5.72;57.00
80412;SHT30;69749;42.684;23.360;2023-11-19T04:51:42;5.69;57.01
80412;SHT30;69749;42.684;23.360;2023-11-19T04:54:11;5.66;57.06
80412;SHT30;69749;42.684;23.360;2023-11-19T04:56:37;5.66;56.97
80412;SHT30;69749;42.684;23.360;2023-11-19T04:59:03;5.65;57.15
80412;SHT30;69749;42.684;23.360;2023-11-19T05:01:28;5.66;57.12
80412;SHT30;69749;42.684;23.360;2023-11-19T05:03:55;5.65;57.00
80412;SHT30;69749;42.684;23.360;2023-11-19T05:06:22;5.65;56.92
80412;SHT30;69749;42.684;23.360;2023-11-19T05:08:47;5.72;56.66
80412;SHT30;69749;42.684;23.360;2023-11-19T05:11:13;5.67;56.61
80412;SHT30;69749;42.684;23.360;2023-11-19T05:13:43;5.72;56.82
80412;SHT30;69749;42.684;23.360;2023-11-19T05:16:10;5.83;56.47
80412;SHT30;69749;42.684;23.360;2023-11-19T05:18:35;5.74;56.34
80412;SHT30;69749;42.684;23.360;2023-11-19T05:21:01;5.74;56.40
80412;SHT30;69749;42.684;23.360;2023-11-19T05:23:26;5.66;56.48
80412;SHT30;69749;42.684;23.360;2023-11-19T05:25:52;5.60;56.66
80412;SHT30;69749;42.684;23.360;2023-11-19T05:28:17;5.53;56.99
80412;SHT30;69749;42.684;23.360;2023-11-19T05:30:43;5.60;56.70
80412;SHT30;69749;42.684;23.360;2023-11-19T05:33:09;5.65;57.25
80412;SHT30;69749;42.684;23.360;2023-11-19T05:35:34;5.66;57.97
80412;SHT30;69749;42.684;23.360;2023-11-19T05:38:00;5.69;56.71
80412;SHT30;69749;42.684;23.360;2023-11-19T05:40:27;5.65;57.79
80412;SHT30;69749;42.684;23.360;2023-11-19T05:42:53;5.55;57.31
80412;SHT30;69749;42.684;23.360;2023-11-19T05:45:18;5.45;57.63
80412;SHT30;69749;42.684;23.360;2023-11-19T05:47:44;5.41;57.46
80412;SHT30;69749;42.684;23.360;2023-11-19T05:50:09;5.48;57.60
80412;SHT30;69749;42.684;23.360;2023-11-19T05:52:35;5.42;57.11
80412;SHT30;69749;42.684;23.360;2023-11-19T05:55:01;5.45;57.33
80412;SHT30;69749;42.684;23.360;2023-11-19T05:57:30;5.51;57.73
80412;SHT30;69749;42.684;23.360;2023-11-19T05:59:55;5.52;58.01
80412;SHT30;69749;42.684;23.360;2023-11-19T06:02:21;5.58;59.04
80412;SHT30;69749;42.684;23.360;2023-11-19T06:04:47;5.74;58.03
80412;SHT30;69749;42.684;23.360;2023-11-19T06:07:13;5.81;57.65
80412;SHT30;69749;42.684;23.360;2023-11-19T06:09:40;5.85;56.44
80412;SHT30;69749;42.684;23.360;2023-11-19T06:12:06;5.94;57.02
80412;SHT30;69749;42.684;23.360;2023-11-19T06:14:32;6.00;57.19
80412;SHT30;69749;42.684;23.360;2023-11-19T06:16:58;6.13;56.70
80412;SHT30;69749;42.684;23.360;2023-11-19T06:19:23;6.22;57.04
80412;SHT30;69749;42.684;23.360;2023-11-19T06:21:50;6.34;56.05
80412;SHT30;69749;42.684;23.360;2023-11-19T06:24:16;6.32;56.98
80412;SHT30;69749;42.684;23.360;2023-11-19T06:26:41;6.30;54.85
80412;SHT30;69749;42.684;23.360;2023-11-19T06:29:07;6.32;54.75
80412;SHT30;69749;42.684;23.360;2023-11-19T06:31:32;6.31;54.79
80412;SHT30;69749;42.684;23.360;2023-11-19T06:33:58;6.25;54.65
80412;SHT30;69749;42.684;23.360;2023-11-19T06:36:24;6.27;55.00
80412;SHT30;69749;42.684;23.360;2023-11-19T06:38:49;6.28;55.82
80412;SHT30;69749;42.684;23.360;2023-11-19T06:41:15;6.39;55.58
80412;SHT30;69749;42.684;23.360;2023-11-19T06:43:40;6.30;54.32
80412;SHT30;69749;42.684;23.360;2023-11-19T06:46:13;6.14;54.90
80412;SHT30;69749;42.684;23.360;2023-11-19T06:48:39;6.09;54.71
80412;SHT30;69749;42.684;23.360;2023-11-19T06:51:05;6.16;54.63
80412;SHT30;69749;42.684;23.360;2023-11-19T06:53:30;6.18;54.44
80412;SHT30;69749;42.684;23.360;2023-11-19T06:55:56;8.32;48.79
80412;SHT30;69749;42.684;23.360;2023-11-19T06:58:22;8.51;48.11
80412;SHT30;69749;42.684;23.360;2023-11-19T07:00:47;8.26;48.23
80412;SHT30;69749;42.684;23.360;2023-11-19T07:03:14;8.37;48.22
80412;SHT30;69749;42.684;23.360;2023-11-19T07:05:41;9.76;44.57
80412;SHT30;69749;42.684;23.360;2023-11-19T07:08:06;11.22;41.37
80412;SHT30;69749;42.684;23.360;2023-11-19T07:10:35;10.41;42.17
80412;SHT30;69749;42.684;23.360;2023-11-19T07:13:00;9.83;43.99
80412;SHT30;69749;42.684;23.360;2023-11-19T07:15:26;9.40;44.14
80412;SHT30;69749;42.684;23.360;2023-11-19T07:17:51;8.98;45.08
80412;SHT30;69749;42.684;23.360;2023-11-19T07:20:19;8.56;45.97
80412;SHT30;69749;42.684;23.360;2023-11-19T07:22:45;8.37;47.01
80412;SHT30;69749;42.684;23.360;2023-11-19T07:25:13;8.25;47.31
80412;SHT30;69749;42.684;23.360;2023-11-19T07:27:38;7.98;47.93
80412;SHT30;69749;42.684;23.360;2023-11-19T07:30:05;7.77;48.53
80412;SHT30;69749;42.684;23.360;2023-11-19T07:32:32;7.61;48.61
80412;SHT30;69749;42.684;23.360;2023-11-19T07:34:58;7.40;49.43
80412;SHT30;69749;42.684;23.360;2023-11-19T07:37:23;7.41;49.53
80412;SHT30;69749;42.684;23.360;2023-11-19T07:39:49;7.38;49.72
80412;SHT30;69749;42.684;23.360;2023-11-19T07:42:14;7.43;49.99
80412;SHT30;69749;42.684;23.360;2023-11-19T07:44:40;7.47;49.33
80412;SHT30;69749;42.684;23.360;2023-11-19T07:47:06;8.43;46.82
80412;SHT30;69749;42.684;23.360;2023-11-19T07:49:32;8.33;46.78
80412;SHT30;69749;42.684;23.360;2023-11-19T07:51:58;8.07;47.26
80412;SHT30;69749;42.684;23.360;2023-11-19T07:54:23;8.02;47.41
80412;SHT30;69749;42.684;23.360;2023-11-19T07:56:49;7.93;47.42
80412;SHT30;69749;42.684;23.360;2023-11-19T07:59:15;8.03;47.37
80412;SHT30;69749;42.684;23.360;2023-11-19T08:01:41;9.01;45.60
80412;SHT30;69749;42.684;23.360;2023-11-19T08:04:06;10.06;42.95
80412;SHT30;69749;42.684;23.360;2023-11-19T08:06:32;10.57;41.21
80412;SHT30;69749;42.684;23.360;2023-11-19T08:08:57;9.93;42.40
80412;SHT30;69749;42.684;23.360;2023-11-19T08:11:23;9.66;42.74
80412;SHT30;69749;42.684;23.360;2023-11-19T08:13:49;9.63;43.32
80412;SHT30;69749;42.684;23.360;2023-11-19T08:16:15;9.46;43.54
80412;SHT30;69749;42.684;23.360;2023-11-19T08:18:43;9.09;43.90
80412;SHT30;69749;42.684;23.360;2023-11-19T08:21:09;8.82;44.54
80412;SHT30;69749;42.684;23.360;2023-11-19T08:23:35;8.61;45.32
80412;SHT30;69749;42.684;23.360;2023-11-19T08:26:01;8.63;45.86
80412;SHT30;69749;42.684;23.360;2023-11-19T08:28:27;8.89;45.41
80412;SHT30;69749;42.684;23.360;2023-11-19T08:30:53;9.02;44.59
80412;SHT30;69749;42.684;23.360;2023-11-19T08:33:18;9.04;44.92
80412;SHT30;69749;42.684;23.360;2023-11-19T08:35:44;8.79;44.76
80412;SHT30;69749;42.684;23.360;2023-11-19T08:38:10;8.60;45.37
80412;SHT30;69749;42.684;23.360;2023-11-19T08:40:36;8.32;45.93
80412;SHT30;69749;42.684;23.360;2023-11-19T08:43:02;8.13;46.27
80412;SHT30;69749;42.684;23.360;2023-11-19T08:45:27;8.02;46.69
80412;SHT30;69749;42.684;23.360;2023-11-19T08:47:52;8.02;47.52
80412;SHT30;69749;42.684;23.360;2023-11-19T08:50:18;8.23;47.03
80412;SHT30;69749;42.684;23.360;2023-11-19T08:53:01;8.51;46.43
80412;SHT30;69749;42.684;23.360;2023-11-19T08:55:27;8.63;45.63
80412;SHT30;69749;42.684;23.360;2023-11-19T08:57:52;8.69;45.53
80412;SHT30;69749;42.684;23.360;2023-11-19T09:00:18;8.88;45.48
80412;SHT30;69749;42.684;23.360;2023-11-19T09:02:44;8.82;45.22
80412;SHT30;69749;42.684;23.360;2023-11-19T09:05:09;8.67;44.82
80412;SHT30;69749;42.684;23.360;2023-11-19T09:07:35;8.89;44.77
80412;SHT30;69749;42.684;23.360;2023-11-19T09:10:00;8.95;44.73
80412;SHT30;69749;42.684;23.360;2023-11-19T09:12:26;8.95;44.35
80412;SHT30;69749;42.684;23.360;2023-11-19T09:14:51;9.02;44.31
80412;SHT30;69749;42.684;23.360;2023-11-19T09:17:17;9.12;44.06
80412;SHT30;69749;42.684;23.360;2023-11-19T09:19:43;9.06;44.27
80412;SHT30;69749;42.684;23.360;2023-11-19T09:22:08;8.82;45.09
80412;SHT30;69749;42.684;23.360;2023-11-19T09:24:34;8.79;45.26
80412;SHT30;69749;42.684;23.360;2023-11-19T09:26:59;8.68;45.35
80412;SHT30;69749;42.684;23.360;2023-11-19T09:29:25;8.67;45.65
80412;SHT30;69749;42.684;23.360;2023-11-19T09:31:50;8.84;45.14
80412;SHT30;69749;42.684;23.360;2023-11-19T09:34:16;9.02;44.63
80412;SHT30;69749;42.684;23.360;2023-11-19T09:36:42;9.14;44.34
80412;SHT30;69749;42.684;23.360;2023-11-19T09:39:10;9.93;42.15
80412;SHT30;69749;42.684;23.360;2023-11-19T09:41:35;9.97;42.77
80412;SHT30;69749;42.684;23.360;2023-11-19T09:44:01;9.97;42.46
80412;SHT30;69749;42.684;23.360;2023-11-19T09:46:28;9.88;42.13
80412;SHT30;69749;42.684;23.360;2023-11-19T09:48:55;9.78;42.27
80412;SHT30;69749;42.684;23.360;2023-11-19T09:51:21;9.66;42.76
80412;SHT30;69749;42.684;23.360;2023-11-19T09:53:49;9.78;41.98
80412;SHT30;69749;42.684;23.360;2023-11-19T09:56:15;9.67;42.07
80412;SHT30;69749;42.684;23.360;2023-11-19T09:58:44;9.87;42.32
80412;SHT30;69749;42.684;23.360;2023-11-19T10:01:09;9.91;42.51
80412;SHT30;69749;42.684;23.360;2023-11-19T10:03:38;9.99;42.00
80412;SHT30;69749;42.684;23.360;2023-11-19T10:06:08;9.97;42.12
80412;SHT30;69749;42.684;23.360;2023-11-19T10:08:34;10.22;40.95
80412;SHT30;69749;42.684;23.360;2023-11-19T10:10:59;10.11;41.28
80412;SHT30;69749;42.684;23.360;2023-11-19T10:13:28;9.94;41.51
80412;SHT30;69749;42.684;23.360;2023-11-19T10:15:55;9.58;42.50
80412;SHT30;69749;42.684;23.360;2023-11-19T10:18:25;9.37;43.20
80412;SHT30;69749;42.684;23.360;2023-11-19T10:20:51;9.35;43.33
80412;SHT30;69749;42.684;23.360;2023-11-19T10:23:17;9.71;43.68
80412;SHT30;69749;42.684;23.360;2023-11-19T10:25:42;9.99;42.20
80412;SHT30;69749;42.684;23.360;2023-11-19T10:28:08;9.90;41.69
80412;SHT30;69749;42.684;23.360;2023-11-19T10:30:33;9.99;41.85
80412;SHT30;69749;42.684;23.360;2023-11-19T10:35:50;10.16;41.81
80412;SHT30;69749;42.684;23.360;2023-11-19T10:38:18;10.31;41.76
80412;SHT30;69749;42.684;23.360;2023-11-19T10:40:44;10.29;42.05
80412;SHT30;69749;42.684;23.360;2023-11-19T10:43:10;10.12;41.27
80412;SHT30;69749;42.684;23.360;2023-11-19T10:45:36;9.95;41.32
80412;SHT30;69749;42.684;23.360;2023-11-19T10:48:03;10.14;41.68
80412;SHT30;69749;42.684;23.360;2023-11-19T10:50:39;10.14;41.11
80412;SHT30;69749;42.684;23.360;2023-11-19T10:53:06;10.01;41.33
80412;SHT30;69749;42.684;23.360;2023-11-19T10:55:37;9.88;41.91
80412;SHT30;69749;42.684;23.360;2023-11-19T10:58:08;9.93;41.74
80412;SHT30;69749;42.684;23.360;2023-11-19T11:00:54;10.06;41.44
80412;SHT30;69749;42.684;23.360;2023-11-19T11:03:21;10.12;42.05
80412;SHT30;69749;42.684;23.360;2023-11-19T11:05:51;10.24;41.69
80412;SHT30;69749;42.684;23.360;2023-11-19T11:08:18;10.52;41.32
80412;SHT30;69749;42.684;23.360;2023-11-19T11:10:54;10.55;40.52
80412;SHT30;69749;42.684;23.360;2023-11-19T11:13:22;10.64;40.93
80412;SHT30;69749;42.684;23.360;2023-11-19T11:15:49;10.66;40.06
80412;SHT30;69749;42.684;23.360;2023-11-19T11:18:15;10.67;40.53
80412;SHT30;69749;42.684;23.360;2023-11-19T11:20:44;10.73;41.23
80412;SHT30;69749;42.684;23.360;2023-11-19T11:38:04;10.49;40.41
80412;SHT30;69749;42.684;23.360;2023-11-19T11:40:32;10.34;40.96
80412;SHT30;69749;42.684;23.360;2023-11-19T11:42:57;10.36;41.28
80412;SHT30;69749;42.684;23.360;2023-11-19T11:45:36;10.46;41.27
80412;SHT30;69749;42.684;23.360;2023-11-19T11:48:14;10.45;40.85
80412;SHT30;69749;42.684;23.360;2023-11-19T11:50:51;10.45;40.96
80412;SHT30;69749;42.684;23.360;2023-11-19T11:53:19;10.45;40.99
80412;SHT30;69749;42.684;23.360;2023-11-19T11:58:13;10.02;41.92
80412;SHT30;69749;42.684;23.360;2023-11-19T12:00:42;9.94;42.56
80412;SHT30;69749;42.684;23.360;2023-11-19T12:03:08;9.90;42.45
80412;SHT30;69749;42.684;23.360;2023-11-19T12:05:45;9.84;42.48
80412;SHT30;69749;42.684;23.360;2023-11-19T12:08:12;9.74;43.09
80412;SHT30;69749;42.684;23.360;2023-11-19T12:10:52;9.66;42.87
80412;SHT30;69749;42.684;23.360;2023-11-19T12:13:20;9.50;43.13
80412;SHT30;69749;42.684;23.360;2023-11-19T12:18:23;9.32;43.46
80412;SHT30;69749;42.684;23.360;2023-11-19T12:20:49;9.23;43.72
80412;SHT30;69749;42.684;23.360;2023-11-19T12:23:15;9.20;43.99
80412;SHT30;69749;42.684;23.360;2023-11-19T12:25:40;9.19;44.43
80412;SHT30;69749;42.684;23.360;2023-11-19T12:28:11;9.29;45.30
80412;SHT30;69749;42.684;23.360;2023-11-19T12:30:37;9.25;44.30
80412;SHT30;69749;42.684;23.360;2023-11-19T12:33:08;9.27;44.07
80412;SHT30;69749;42.684;23.360;2023-11-19T12:35:41;9.33;44.02
80412;SHT30;69749;42.684;23.360;2023-11-19T12:38:08;9.22;44.17
80412;SHT30;69749;42.684;23.360;2023-11-19T12:40:43;9.14;44.89
80412;SHT30;69749;42.684;23.360;2023-11-19T12:43:08;9.18;44.74
80412;SHT30;69749;42.684;23.360;2023-11-19T12:45:35;9.22;44.59
80412;SHT30;69749;42.684;23.360;2023-11-19T12:48:07;9.04;44.83
80412;SHT30;69749;42.684;23.360;2023-11-19T12:50:57;9.09;45.11
80412;SHT30;69749;42.684;23.360;2023-11-19T12:53:23;9.16;44.54
80412;SHT30;69749;42.684;23.360;2023-11-19T12:55:50;9.05;44.56
80412;SHT30;69749;42.684;23.360;2023-11-19T12:58:33;9.01;44.94
80412;SHT30;69749;42.684;23.360;2023-11-19T13:01:07;9.04;45.20
80412;SHT30;69749;42.684;23.360;2023-11-19T13:03:35;9.05;45.15
80412;SHT30;69749;42.684;23.360;2023-11-19T13:06:05;9.06;45.47
80412;SHT30;69749;42.684;23.360;2023-11-19T13:08:42;9.09;45.04
80412;SHT30;69749;42.684;23.360;2023-11-19T13:11:10;9.04;45.42
80412;SHT30;69749;42.684;23.360;2023-11-19T13:14:02;8.98;45.19
80412;SHT30;69749;42.684;23.360;2023-11-19T13:16:31;8.95;45.36
80412;SHT30;69749;42.684;23.360;2023-11-19T13:18:57;8.99;45.49
80412;SHT30;69749;42.684;23.360;2023-11-19T13:21:23;8.96;45.53
80412;SHT30;69749;42.684;23.360;2023-11-19T13:23:49;8.85;45.40
80412;SHT30;69749;42.684;23.360;2023-11-19T13:26:15;8.82;45.67
80412;SHT30;69749;42.684;23.360;2023-11-19T13:28:40;8.87;45.73
80412;SHT30;69749;42.684;23.360;2023-11-19T13:31:06;8.81;46.00
80412;SHT30;69749;42.684;23.360;2023-11-19T13:33:31;8.92;46.41
80412;SHT30;69749;42.684;23.360;2023-11-19T13:35:57;8.98;46.14
80412;SHT30;69749;42.684;23.360;2023-11-19T13:38:22;9.04;46.12
80412;SHT30;69749;42.684;23.360;2023-11-19T13:40:49;9.12;45.78
80412;SHT30;69749;42.684;23.360;2023-11-19T13:43:15;9.09;45.67
80412;SHT30;69749;42.684;23.360;2023-11-19T13:45:40;8.96;45.79
80412;SHT30;69749;42.684;23.360;2023-11-19T13:48:05;9.02;46.05
80412;SHT30;69749;42.684;23.360;2023-11-19T13:50:31;9.09;45.96
80412;SHT30;69749;42.684;23.360;2023-11-19T13:52:57;9.08;46.14
80412;SHT30;69749;42.684;23.360;2023-11-19T13:55:22;9.08;45.98
80412;SHT30;69749;42.684;23.360;2023-11-19T13:57:48;9.09;45.91
80412;SHT30;69749;42.684;23.360;2023-11-19T14:00:14;9.11;46.26
80412;SHT30;69749;42.684;23.360;2023-11-19T14:02:46;9.04;45.71
80412;SHT30;69749;42.684;23.360;2023-11-19T14:05:24;8.98;46.16
80412;SHT30;69749;42.684;23.360;2023-11-19T14:07:50;8.93;46.82
80412;SHT30;69749;42.684;23.360;2023-11-19T14:10:16;8.84;46.38
80412;SHT30;69749;42.684;23.360;2023-11-19T14:12:42;8.78;46.88
80412;SHT30;69749;42.684;23.360;2023-11-19T14:15:11;8.75;46.96
80412;SHT30;69749;42.684;23.360;2023-11-19T14:17:39;8.81;47.19
80412;SHT30;69749;42.684;23.360;2023-11-19T14:20:05;8.81;47.42
80412;SHT30;69749;42.684;23.360;2023-11-19T14:22:42;8.87;46.85
80412;SHT30;69749;42.684;23.360;2023-11-19T14:25:08;8.67;47.11
80412;SHT30;69749;42.684;23.360;2023-11-19T14:27:39;8.60;47.52
80412;SHT30;69749;42.684;23.360;2023-11-19T14:30:06;8.57;47.52
80412;SHT30;69749;42.684;23.360;2023-11-19T14:32:32;8.61;47.32
80412;SHT30;69749;42.684;23.360;2023-11-19T14:34:57;8.54;47.47
80412;SHT30;69749;42.684;23.360;2023-11-19T14:37:23;8.51;48.01
80412;SHT30;69749;42.684;23.360;2023-11-19T14:39:48;8.50;47.95
80412;SHT30;69749;42.684;23.360;2023-11-19T14:42:16;8.50;48.36
80412;SHT30;69749;42.684;23.360;2023-11-19T14:44:43;8.47;48.21
80412;SHT30;69749;42.684;23.360;2023-11-19T14:47:08;8.40;48.19
80412;SHT30;69749;42.684;23.360;2023-11-19T14:49:37;8.44;48.22
80412;SHT30;69749;42.684;23.360;2023-11-19T14:52:06;8.37;48.41
80412;SHT30;69749;42.684;23.360;2023-11-19T14:54:31;8.30;48.94
80412;SHT30;69749;42.684;23.360;2023-11-19T14:56:57;8.25;49.11
80412;SHT30;69749;42.684;23.360;2023-11-19T14:59:24;8.29;49.62
80412;SHT30;69749;42.684;23.360;2023-11-19T15:01:50;8.22;49.71
80412;SHT30;69749;42.684;23.360;2023-11-19T15:04:15;8.17;49.49
80412;SHT30;69749;42.684;23.360;2023-11-19T15:06:41;8.12;49.68
80412;SHT30;69749;42.684;23.360;2023-11-19T15:09:06;8.12;49.50
80412;SHT30;69749;42.684;23.360;2023-11-19T15:11:33;8.16;49.65
80412;SHT30;69749;42.684;23.360;2023-11-19T15:13:58;8.06;49.93
80412;SHT30;69749;42.684;23.360;2023-11-19T15:16:25;8.02;49.66
80412;SHT30;69749;42.684;23.360;2023-11-19T15:18:59;7.98;50.00
80412;SHT30;69749;42.684;23.360;2023-11-19T15:21:28;7.96;49.71
80412;SHT30;69749;42.684;23.360;2023-11-19T15:23:55;8.00;50.05
80412;SHT30;69749;42.684;23.360;2023-11-19T15:26:21;7.95;50.07
80412;SHT30;69749;42.684;23.360;2023-11-19T15:28:47;7.86;50.36
80412;SHT30;69749;42.684;23.360;2023-11-19T15:31:12;7.85;50.04
80412;SHT30;69749;42.684;23.360;2023-11-19T15:33:40;7.78;50.02
80412;SHT30;69749;42.684;23.360;2023-11-19T15:36:06;7.65;50.27
80412;SHT30;69749;42.684;23.360;2023-11-19T15:38:34;7.69;50.52
80412;SHT30;69749;42.684;23.360;2023-11-19T15:40:59;7.74;50.57
80412;SHT30;69749;42.684;23.360;2023-11-19T15:43:25;7.67;50.69
80412;SHT30;69749;42.684;23.360;2023-11-19T15:45:50;7.69;50.63
80412;SHT30;69749;42.684;23.360;2023-11-19T15:48:16;7.71;50.71
80412;SHT30;69749;42.684;23.360;2023-11-19T15:50:43;7.69;50.48
80412;SHT30;69749;42.684;23.360;2023-11-19T15:53:10;7.71;50.69